Time;durP1;ratioP1;P1;durP2;ratioP2;P2;SDS_P1;SDS_P2;PMS_P1;PMS_P2;Temp;Humidity;BMP_temperature;BMP_pressure;BME280_temperature;BME280_humidity;BME280_pressure;Samples;Min_cycle;Max_cycle;Signal;HPM_P1;HPM_P2
2021/12/13 00:01:38;;;;;;;78.78;50.08;;;;;;;3.37;79.98;94612.39;1661457;85;21002;-60
2021/12/13 00:04:11;;;;;;;91.22;51.60;;;;;;;3.42;80.37;94606.54;1683889;85;21474;-59
2021/12/13 00:06:40;;;;;;;100.20;52.98;;;;;;;3.48;79.87;94605.70;1681404;85;21054;-59
2021/12/13 00:09:13;;;;;;;98.27;51.55;;;;;;;3.49;79.84;94605.27;1689372;85;20974;-58
2021/12/13 00:11:45;;;;;;;90.55;47.13;;;;;;;3.51;79.60;94596.72;1667357;85;21179;-60
2021/12/13 00:14:16;;;;;;;69.87;38.67;;;;;;;3.54;79.53;94602.70;1690109;85;21046;-59
2021/12/13 00:16:50;;;;;;;57.45;32.00;;;;;;;3.53;79.30;94603.89;1689884;85;21046;-60
2021/12/13 00:19:21;;;;;;;44.18;26.82;;;;;;;3.53;79.60;94614.16;1690040;85;20978;-60
2021/12/13 00:21:52;;;;;;;33.83;22.00;;;;;;;3.56;79.30;94614.73;1689963;85;21478;-59
2021/12/13 00:24:31;;;;;;;37.33;22.10;;;;;;;3.56;79.02;94616.66;1689551;85;21158;-59
2021/12/13 00:27:20;;;;;;;32.25;20.12;;;;;;;3.48;78.91;94615.97;1689856;84;20991;-60
2021/12/13 00:30:05;;;;;;;32.67;20.62;;;;;;;3.42;78.75;94617.41;1689707;84;20959;-59
2021/12/13 00:33:09;;;;;;;42.70;23.62;;;;;;;3.40;79.34;94620.52;1677652;85;21047;-61
2021/12/13 00:35:54;;;;;;;50.63;26.60;;;;;;;3.43;79.18;94635.27;1686366;85;21533;-60
2021/12/13 00:38:24;;;;;;;55.75;30.57;;;;;;;3.42;79.13;94629.05;1690102;85;21808;-59
2021/12/13 00:41:13;;;;;;;52.67;27.62;;;;;;;3.40;79.17;94636.08;1645744;85;20964;-60
2021/12/13 00:43:51;;;;;;;53.25;28.83;;;;;;;3.38;79.20;94626.20;1683296;85;21005;-59
2021/12/13 00:46:18;;;;;;;39.03;22.35;;;;;;;3.38;79.48;94639.80;1687232;85;20987;-60
2021/12/13 00:48:48;;;;;;;39.50;22.07;;;;;;;3.45;79.28;94639.71;1690111;85;21491;-60
2021/12/13 00:51:30;;;;;;;33.70;19.30;;;;;;;3.48;79.08;94634.25;1689919;85;21162;-59
2021/12/13 00:54:02;;;;;;;32.90;19.87;;;;;;;3.49;79.00;94626.27;1686878;85;20967;-59
2021/12/13 00:57:01;;;;;;;35.13;20.30;;;;;;;3.48;78.68;94640.26;1690256;85;21176;-59
2021/12/13 00:59:44;;;;;;;38.85;22.15;;;;;;;3.45;79.04;94648.63;1689912;85;20987;-59
2021/12/13 01:02:16;;;;;;;47.93;27.02;;;;;;;3.51;78.80;94650.50;1656937;85;21570;-59
2021/12/13 01:05:18;;;;;;;53.25;27.02;;;;;;;3.48;78.72;94652.67;1690160;85;21545;-59
2021/12/13 01:08:28;;;;;;;44.30;24.23;;;;;;;3.49;78.71;94650.14;1688296;85;20999;-59
2021/12/13 01:11:12;;;;;;;36.68;24.27;;;;;;;3.44;78.37;94651.77;1689856;85;21023;-59
2021/12/13 01:13:45;;;;;;;40.95;26.60;;;;;;;3.30;78.65;94651.89;1627915;84;20991;-59
2021/12/13 01:22:01;;;;;;;37.05;23.22;;;;;;;3.09;79.15;94643.34;1690081;85;21007;-59
2021/12/13 01:27:00;;;;;;;34.00;21.33;;;;;;;3.26;79.71;94641.65;1640288;84;20963;-59
2021/12/13 01:29:27;;;;;;;26.85;19.27;;;;;;;3.29;79.29;94649.00;1668292;85;20971;-62
2021/12/13 01:32:06;;;;;;;22.70;15.48;;;;;;;3.31;79.46;94637.13;1689934;85;21169;-60
2021/12/13 01:34:35;;;;;;;20.55;13.50;;;;;;;3.34;79.02;94645.26;1690017;85;21006;-60
2021/12/13 01:37:14;;;;;;;22.32;13.40;;;;;;;3.22;78.55;94645.00;1690205;84;21038;-60
2021/12/13 01:39:47;;;;;;;20.43;13.72;;;;;;;3.16;78.83;94635.14;1689716;83;21475;-60
2021/12/13 01:42:21;;;;;;;17.70;13.45;;;;;;;3.21;78.71;94636.66;1668475;85;21031;-59
2021/12/13 01:44:54;;;;;;;20.82;14.33;;;;;;;3.27;78.92;94629.59;1689410;85;21160;-58
2021/12/13 01:47:26;;;;;;;17.35;12.98;;;;;;;3.32;78.64;94634.59;1690249;85;21606;-59
2021/12/13 01:49:58;;;;;;;18.12;13.43;;;;;;;3.34;78.42;94638.46;1688753;85;21010;-58
2021/12/13 01:52:29;;;;;;;13.78;10.90;;;;;;;3.26;78.32;94640.29;1690069;85;21003;-59
2021/12/13 01:54:59;;;;;;;12.75;9.78;;;;;;;3.19;78.61;94640.34;1681057;85;21587;-59
2021/12/13 01:57:39;;;;;;;14.47;10.10;;;;;;;3.27;78.85;94645.91;1690114;85;21092;-59
2021/12/13 02:00:09;;;;;;;14.45;9.80;;;;;;;3.34;78.48;94636.31;1681944;85;20970;-59
2021/12/13 02:02:47;;;;;;;10.55;8.18;;;;;;;3.39;78.34;94639.98;1689879;85;21054;-59
2021/12/13 02:05:25;;;;;;;12.68;10.23;;;;;;;3.44;78.42;94633.48;1689776;84;21063;-59
2021/12/13 02:08:06;;;;;;;16.97;12.40;;;;;;;3.52;78.32;94630.30;1689332;84;21014;-60
2021/12/13 02:10:47;;;;;;;14.55;11.05;;;;;;;3.62;77.84;94621.26;1687230;85;21188;-59
2021/12/13 02:13:21;;;;;;;19.42;12.70;;;;;;;3.57;77.14;94628.52;1685433;85;21055;-60
2021/12/13 02:18:50;;;;;;;17.92;11.88;;;;;;;3.35;77.09;94641.94;1689803;85;21573;-59
2021/12/13 02:21:27;;;;;;;18.55;13.20;;;;;;;3.19;77.30;94630.83;1689876;85;20963;-60
2021/12/13 02:24:03;;;;;;;29.32;20.23;;;;;;;3.10;77.65;94646.84;1689802;84;21168;-60
2021/12/13 02:26:30;;;;;;;45.55;29.48;;;;;;;2.98;77.74;94658.19;1689789;85;20955;-59
2021/12/13 02:29:09;;;;;;;43.60;27.93;;;;;;;2.89;77.88;94654.57;1690203;84;20978;-59
2021/12/13 02:31:38;;;;;;;24.55;17.30;;;;;;;2.84;78.13;94655.61;1665188;85;21003;-60
2021/12/13 02:34:09;;;;;;;16.25;12.93;;;;;;;2.84;78.41;94653.65;1654995;86;21074;-60
2021/12/13 02:36:40;;;;;;;18.87;12.95;;;;;;;2.85;78.44;94653.83;1653294;86;21225;-59
2021/12/13 02:39:15;;;;;;;20.32;13.22;;;;;;;2.91;78.50;94651.47;1653936;86;20948;-59
2021/12/13 02:41:42;;;;;;;16.65;12.30;;;;;;;2.93;78.38;94649.91;1654032;86;21102;-59
2021/12/13 02:44:20;;;;;;;16.10;11.48;;;;;;;2.93;78.50;94651.84;1651302;86;20964;-60
2021/12/13 02:46:47;;;;;;;14.03;10.45;;;;;;;2.94;78.33;94654.16;1676595;85;20975;-59
2021/12/13 02:49:15;;;;;;;12.80;9.35;;;;;;;3.00;78.40;94656.63;1683091;84;21789;-60
2021/12/13 02:51:53;;;;;;;16.20;10.15;;;;;;;3.04;78.00;94654.65;1665951;85;21047;-59
2021/12/13 02:54:26;;;;;;;16.57;11.78;;;;;;;3.01;77.73;94654.67;1652449;86;21460;-59
2021/12/13 02:57:01;;;;;;;20.00;11.97;;;;;;;2.98;77.67;94667.13;1682869;85;21082;-59
2021/12/13 02:59:31;;;;;;;22.15;13.03;;;;;;;2.92;77.63;94661.16;1690050;85;21600;-58
2021/12/13 03:02:17;;;;;;;20.23;14.55;;;;;;;2.89;78.21;94666.04;1689821;85;20987;-60
2021/12/13 03:04:43;;;;;;;18.05;11.95;;;;;;;2.96;78.40;94674.13;1671867;85;21015;-59
2021/12/13 03:07:21;;;;;;;16.85;12.85;;;;;;;3.00;77.98;94674.29;1668352;85;20970;-60
2021/12/13 03:09:52;;;;;;;16.07;12.47;;;;;;;2.97;77.96;94674.30;1688894;85;21116;-59
2021/12/13 03:12:21;;;;;;;17.42;12.37;;;;;;;2.96;77.91;94672.19;1689843;85;20971;-59
2021/12/13 03:14:52;;;;;;;15.43;12.20;;;;;;;2.95;77.84;94676.08;1689824;85;21941;-59
2021/12/13 03:17:28;;;;;;;15.65;11.90;;;;;;;2.97;77.92;94681.09;1689887;85;20971;-59
2021/12/13 03:20:25;;;;;;;15.95;13.90;;;;;;;2.95;77.55;94680.73;1676581;85;21002;-62
2021/12/13 03:23:26;;;;;;;17.27;13.08;;;;;;;2.89;77.34;94674.19;1598831;85;21651;-60
2021/12/13 03:26:28;;;;;;;21.17;13.48;;;;;;;2.85;77.29;94675.56;1690353;85;21050;-59
2021/12/13 03:29:06;;;;;;;13.15;10.85;;;;;;;2.83;77.32;94681.23;1658788;85;21120;-59
2021/12/13 03:31:50;;;;;;;12.18;9.75;;;;;;;2.86;77.43;94676.35;1655352;85;21532;-59
2021/12/13 03:34:30;;;;;;;10.68;8.98;;;;;;;2.89;77.42;94671.47;1654506;85;20987;-59
2021/12/13 03:37:08;;;;;;;8.85;8.05;;;;;;;2.89;77.24;94676.30;1674506;85;21534;-60
2021/12/13 03:39:43;;;;;;;8.05;7.25;;;;;;;2.84;77.41;94669.19;1681649;84;20999;-60
2021/12/13 03:42:15;;;;;;;9.43;8.43;;;;;;;2.84;77.11;94657.72;1690211;85;21069;-59
2021/12/13 03:44:47;;;;;;;9.63;8.68;;;;;;;2.82;77.37;94660.07;1668782;85;21057;-59
2021/12/13 03:47:22;;;;;;;8.15;7.35;;;;;;;2.89;77.10;94657.89;1690137;85;21062;-59
2021/12/13 03:49:54;;;;;;;11.00;9.83;;;;;;;2.94;76.75;94662.89;1689994;85;20999;-59
2021/12/13 03:52:22;;;;;;;31.93;18.33;;;;;;;2.95;76.72;94659.00;1689224;84;20959;-60
2021/12/13 03:54:51;;;;;;;40.75;23.25;;;;;;;2.96;76.66;94662.69;1689945;85;21151;-60
2021/12/13 03:57:18;;;;;;;52.25;26.82;;;;;;;2.96;76.87;94668.69;1690123;85;20959;-60
2021/12/13 03:59:46;;;;;;;41.35;23.45;;;;;;;3.00;76.74;94670.78;1689985;85;21514;-60
2021/12/13 04:02:21;;;;;;;169.17;59.98;;;;;;;3.03;76.61;94670.77;1690258;85;21043;-60
2021/12/13 04:04:55;;;;;;;266.63;95.80;;;;;;;3.01;76.57;94663.61;1690206;85;20959;-59
2021/12/13 04:07:25;;;;;;;110.48;45.92;;;;;;;3.05;76.94;94667.06;1690223;85;21169;-60
2021/12/13 04:09:55;;;;;;;96.45;41.88;;;;;;;3.17;76.74;94676.66;1690002;85;21521;-60
2021/12/13 04:12:31;;;;;;;76.22;32.60;;;;;;;3.19;76.56;94665.59;1690341;85;21058;-59
2021/12/13 04:15:01;;;;;;;29.32;18.35;;;;;;;3.28;76.64;94666.48;1689777;84;21054;-60
2021/12/13 04:17:56;;;;;;;21.55;15.00;;;;;;;3.28;76.10;94661.05;1689697;84;20995;-59
2021/12/13 04:20:23;;;;;;;17.62;13.00;;;;;;;3.16;75.79;94670.47;1666870;85;21020;-59
2021/12/13 04:22:54;;;;;;;14.15;11.50;;;;;;;3.02;75.94;94663.03;1670319;85;21023;-60
2021/12/13 04:25:26;;;;;;;11.40;10.10;;;;;;;2.95;76.10;94665.78;1668668;85;20971;-60
2021/12/13 04:28:07;;;;;;;16.42;11.80;;;;;;;2.86;76.23;94669.56;1689132;85;21026;-60
2021/12/13 04:30:46;;;;;;;20.90;16.00;;;;;;;2.74;76.45;94664.59;1689678;84;21026;-60
2021/12/13 04:33:30;;;;;;;21.52;16.52;;;;;;;2.65;76.72;94667.76;1689669;84;22005;-60
2021/12/13 04:36:02;;;;;;;26.70;19.07;;;;;;;2.54;77.03;94662.97;1688515;84;20955;-60
2021/12/13 04:38:40;;;;;;;22.85;17.30;;;;;;;2.47;77.35;94664.98;1690138;84;20975;-60
2021/12/13 04:41:06;;;;;;;23.57;16.87;;;;;;;2.46;77.91;94668.27;1688812;85;21031;-59
2021/12/13 04:43:36;;;;;;;30.37;20.37;;;;;;;2.39;77.85;94673.75;1689905;85;21159;-59
2021/12/13 04:46:05;;;;;;;38.05;23.77;;;;;;;2.33;78.21;94666.42;1689922;85;21124;-59
2021/12/13 04:48:34;;;;;;;32.65;22.50;;;;;;;2.30;78.37;94669.93;1690014;85;21014;-58
2021/12/13 04:51:13;;;;;;;30.70;18.95;;;;;;;2.23;78.63;94672.09;1690126;85;21031;-60
2021/12/13 04:53:46;;;;;;;28.90;18.30;;;;;;;2.22;78.83;94675.19;1690372;85;20979;-60
2021/12/13 04:56:18;;;;;;;23.12;16.23;;;;;;;2.15;79.00;94672.52;1689929;85;21466;-59
2021/12/13 04:58:48;;;;;;;20.12;14.30;;;;;;;2.15;79.32;94671.16;1690042;85;20978;-59
2021/12/13 05:01:16;;;;;;;22.70;16.90;;;;;;;2.13;79.33;94658.58;1689876;85;21074;-59
2021/12/13 05:03:51;;;;;;;23.07;17.10;;;;;;;2.12;79.36;94661.86;1689825;85;21067;-61
2021/12/13 05:06:22;;;;;;;21.50;16.20;;;;;;;2.14;79.64;94667.66;1688591;84;20959;-61
2021/12/13 05:08:53;;;;;;;19.55;15.00;;;;;;;2.23;79.63;94679.45;1690180;85;21470;-60
2021/12/13 05:11:21;;;;;;;23.15;15.70;;;;;;;2.24;79.43;94685.84;1689986;85;21166;-60
2021/12/13 05:13:52;;;;;;;22.77;14.78;;;;;;;2.26;79.46;94688.16;1689884;85;20999;-59
2021/12/13 05:16:38;;;;;;;21.65;15.90;;;;;;;2.29;79.36;94695.52;1689840;85;21015;-59
2021/12/13 05:19:07;;;;;;;20.48;15.15;;;;;;;2.26;79.33;94693.01;1689884;85;21035;-59
2021/12/13 05:21:50;;;;;;;21.68;16.30;;;;;;;2.27;79.39;94695.13;1667713;85;21089;-60
2021/12/13 05:24:20;;;;;;;21.85;16.40;;;;;;;2.25;79.24;94689.32;1690226;85;21738;-53
2021/12/13 05:26:55;;;;;;;23.92;18.37;;;;;;;2.23;79.05;94693.02;1668143;85;20968;-55
2021/12/13 05:29:36;;;;;;;21.70;15.53;;;;;;;2.18;79.03;94696.15;1689566;84;21636;-55
2021/12/13 05:32:17;;;;;;;21.15;16.62;;;;;;;2.13;79.06;94700.64;1689967;85;21133;-55
2021/12/13 05:34:49;;;;;;;20.20;15.05;;;;;;;2.07;79.09;94702.98;1668395;85;21078;-55
2021/12/13 05:37:16;;;;;;;22.02;16.25;;;;;;;2.07;79.35;94700.84;1688245;85;21514;-56
2021/12/13 05:40:06;;;;;;;18.70;14.60;;;;;;;2.07;79.02;94698.13;1689714;83;21059;-54
2021/12/13 05:42:53;;;;;;;16.95;14.30;;;;;;;2.06;79.03;94689.80;1689935;85;21015;-57
2021/12/13 05:45:39;;;;;;;17.92;13.85;;;;;;;2.11;79.18;94701.62;1689960;85;20990;-56
2021/12/13 05:48:13;;;;;;;19.65;15.63;;;;;;;2.15;78.74;94702.38;1690111;85;21140;-57
2021/12/13 05:50:48;;;;;;;19.90;14.23;;;;;;;2.18;79.04;94701.58;1689907;85;21451;-56
2021/12/13 05:53:20;;;;;;;21.02;15.88;;;;;;;2.34;79.18;94705.96;1689144;84;21022;-56
2021/12/13 05:55:58;;;;;;;38.60;22.50;;;;;;;2.46;78.37;94710.92;1688890;84;21038;-56
2021/12/13 05:58:47;;;;;;;61.10;32.48;;;;;;;2.43;78.08;94709.79;1690338;85;21029;-55
2021/12/13 06:01:31;;;;;;;66.72;33.78;;;;;;;2.46;78.14;94710.92;1689978;85;21027;-55
2021/12/13 06:04:12;;;;;;;51.33;29.75;;;;;;;2.45;77.57;94714.80;1668908;85;21972;-56
2021/12/13 06:06:50;;;;;;;59.30;33.98;;;;;;;2.41;77.69;94717.56;1686009;85;21454;-55
2021/12/13 06:09:42;;;;;;;49.93;29.42;;;;;;;2.48;77.58;94724.30;1688455;84;20984;-56
2021/12/13 06:12:14;;;;;;;66.17;37.35;;;;;;;2.52;77.45;94725.05;1687796;85;21026;-58
2021/12/13 06:14:42;;;;;;;64.72;37.60;;;;;;;2.53;77.30;94729.91;1668759;85;21101;-54
2021/12/13 06:17:23;;;;;;;50.05;30.23;;;;;;;2.55;76.98;94724.84;1689842;85;21173;-56
2021/12/13 06:20:01;;;;;;;76.92;42.45;;;;;;;2.59;76.70;94724.23;1689428;84;21449;-55
2021/12/13 06:22:30;;;;;;;82.67;44.38;;;;;;;2.61;76.69;94723.25;1689766;85;20982;-56
2021/12/13 06:25:07;;;;;;;50.50;31.73;;;;;;;2.67;76.30;94711.58;1689795;85;20891;-55
2021/12/13 06:27:53;;;;;;;47.80;27.50;;;;;;;2.73;76.04;94722.80;1668225;85;21038;-54
2021/12/13 06:30:27;;;;;;;32.25;22.07;;;;;;;2.80;75.87;94726.81;1668186;85;21093;-60
2021/12/13 06:33:07;;;;;;;28.67;18.95;;;;;;;2.82;75.62;94719.05;1689809;85;21596;-54
2021/12/13 06:35:45;;;;;;;70.90;37.65;;;;;;;2.81;75.31;94721.00;1689771;85;21022;-55
2021/12/13 06:38:43;;;;;;;39.33;25.92;;;;;;;2.76;75.26;94731.51;1656775;85;21079;-55
2021/12/13 06:41:21;;;;;;;58.98;35.43;;;;;;;2.74;75.50;94725.13;1664032;84;20980;-55
2021/12/13 06:43:55;;;;;;;71.57;44.25;;;;;;;2.73;75.33;94737.14;1662502;84;21966;-58
2021/12/13 06:46:28;;;;;;;52.00;32.80;;;;;;;2.74;75.27;94729.78;1681125;83;20987;-57
2021/12/13 06:49:09;;;;;;;92.97;50.33;;;;;;;2.77;75.19;94738.48;1682855;83;21175;-58
2021/12/13 06:52:01;;;;;;;78.27;40.97;;;;;;;2.82;74.90;94732.63;1709380;83;21088;-55
2021/12/13 06:54:51;;;;;;;81.80;41.45;;;;;;;2.90;74.79;94725.98;1703929;83;21141;-57
2021/12/13 06:57:26;;;;;;;124.82;54.65;;;;;;;2.90;74.24;94730.06;1674738;85;21152;-59
2021/12/13 06:59:59;;;;;;;100.85;43.23;;;;;;;2.85;74.37;94729.89;1652830;83;21594;-58
2021/12/13 07:02:40;;;;;;;90.17;43.42;;;;;;;2.90;74.27;94736.25;1686184;82;21207;-57
2021/12/13 07:05:34;;;;;;;60.05;32.58;;;;;;;2.85;74.04;94734.56;1702301;82;21604;-58
2021/12/13 07:08:13;;;;;;;42.78;26.65;;;;;;;2.80;74.09;94741.19;1682879;82;21138;-62
2021/12/13 07:10:48;;;;;;;40.20;24.50;;;;;;;2.75;74.19;94741.61;1681222;83;21177;-60
2021/12/13 07:13:50;;;;;;;29.37;20.92;;;;;;;2.67;74.09;94740.69;1688457;82;21952;-68
2021/12/13 07:16:25;;;;;;;126.22;61.08;;;;;;;2.64;74.26;94736.03;1678157;82;21548;-62
2021/12/13 07:19:07;;;;;;;160.93;68.22;;;;;;;2.65;74.36;94734.89;1703473;82;21513;-65
2021/12/13 07:21:44;;;;;;;104.43;47.25;;;;;;;2.67;74.42;94737.98;1686520;82;21997;-64
2021/12/13 07:24:15;;;;;;;52.35;29.50;;;;;;;2.65;74.57;94734.89;1712355;82;21158;-59
2021/12/13 07:27:07;;;;;;;65.95;34.50;;;;;;;2.66;74.33;94737.80;1699301;82;23167;-68
2021/12/13 07:30:00;;;;;;;103.92;48.92;;;;;;;2.64;74.25;94742.25;1633919;84;21140;-62
2021/12/13 07:32:36;;;;;;;67.22;36.17;;;;;;;2.59;74.45;94743.24;1651194;84;21202;-60
2021/12/13 07:35:32;;;;;;;53.25;28.70;;;;;;;2.64;74.53;94750.97;1640983;85;21150;-57
2021/12/13 07:38:16;;;;;;;64.58;34.20;;;;;;;2.65;74.62;94746.51;1652196;84;21151;-60
2021/12/13 07:40:55;;;;;;;58.50;35.80;;;;;;;2.74;74.63;94750.14;1571188;89;21149;-61
2021/12/13 07:43:31;;;;;;;112.60;53.55;;;;;;;2.89;74.51;94755.69;1588727;87;21078;-63
2021/12/13 07:46:12;;;;;;;73.67;38.42;;;;;;;3.05;74.06;94768.20;1596351;88;21104;-62
2021/12/13 07:48:49;;;;;;;58.83;32.95;;;;;;;3.08;73.42;94768.75;1600435;87;21145;-65
2021/12/13 07:51:26;;;;;;;70.00;38.05;;;;;;;3.05;73.04;94762.16;1592136;87;21129;-60
2021/12/13 07:54:05;;;;;;;56.90;32.08;;;;;;;2.97;72.92;94770.76;1600795;88;21610;-59
2021/12/13 07:56:40;;;;;;;53.35;31.90;;;;;;;2.95;73.00;94776.61;1575611;87;21179;-58
2021/12/13 07:59:31;;;;;;;55.63;32.55;;;;;;;2.95;72.71;94775.82;1578317;89;21083;-64
2021/12/13 08:02:08;;;;;;;53.02;31.35;;;;;;;2.98;72.63;94774.45;1657070;84;21077;-61
2021/12/13 08:04:49;;;;;;;58.83;34.13;;;;;;;3.10;72.55;94777.28;1652980;84;21735;-63
2021/12/13 08:07:26;;;;;;;73.22;40.52;;;;;;;3.18;72.06;94789.64;1639054;85;21577;-64
2021/12/13 08:10:03;;;;;;;56.80;33.88;;;;;;;3.21;71.83;94790.22;1647079;84;21125;-68
2021/12/13 08:12:43;;;;;;;74.55;42.55;;;;;;;3.24;71.79;94794.86;1619792;86;21560;-62
2021/12/13 08:15:14;;;;;;;75.08;39.88;;;;;;;3.25;71.63;94793.08;1640049;85;21056;-62
2021/12/13 08:17:57;;;;;;;60.25;36.80;;;;;;;3.30;71.16;94798.69;1613712;86;20995;-62
2021/12/13 08:20:31;;;;;;;57.75;36.60;;;;;;;3.31;71.05;94805.67;1608984;87;21166;-60
2021/12/13 08:23:00;;;;;;;74.45;41.15;;;;;;;3.36;70.81;94803.87;1637558;85;21062;-60
2021/12/13 08:25:32;;;;;;;121.80;61.77;;;;;;;3.43;70.66;94804.60;1701264;82;21106;-60
2021/12/13 08:28:08;;;;;;;63.23;38.88;;;;;;;3.48;70.51;94802.23;1699817;83;21476;-59
2021/12/13 08:30:57;;;;;;;51.58;32.15;;;;;;;3.48;70.37;94806.31;1697128;83;21202;-59
2021/12/13 08:33:34;;;;;;;38.85;25.17;;;;;;;3.39;70.45;94801.74;1673488;82;21082;-60
2021/12/13 08:36:13;;;;;;;34.65;23.07;;;;;;;3.35;70.35;94805.84;1666886;82;21066;-59
2021/12/13 08:39:01;;;;;;;29.63;19.20;;;;;;;3.31;70.50;94805.67;1690151;82;21051;-61
2021/12/13 08:41:47;;;;;;;28.12;19.45;;;;;;;3.36;70.51;94799.80;1667499;82;21116;-59
2021/12/13 08:47:27;;;;;;;29.45;21.30;;;;;;;3.56;70.30;94801.59;1702214;81;21266;-63
2021/12/13 08:50:08;;;;;;;29.17;19.83;;;;;;;3.56;70.16;94796.94;1680950;82;22138;-56
2021/12/13 08:52:40;;;;;;;31.05;20.85;;;;;;;3.58;70.19;94798.67;1671774;83;22254;-63
2021/12/13 08:55:38;;;;;;;36.25;23.62;;;;;;;3.57;70.23;94797.13;1685080;82;21033;-59
2021/12/13 08:58:17;;;;;;;32.00;21.68;;;;;;;3.55;70.28;94794.61;1706702;82;21218;-64
2021/12/13 09:00:59;;;;;;;34.92;23.22;;;;;;;3.51;70.29;94791.91;1698654;82;21015;-63
2021/12/13 09:03:37;;;;;;;32.73;22.48;;;;;;;3.52;70.59;94795.42;1685098;82;21004;-61
2021/12/13 09:06:25;;;;;;;35.73;23.77;;;;;;;3.58;70.58;94785.07;1692135;83;21195;-64
2021/12/13 09:09:13;;;;;;;39.33;25.90;;;;;;;3.67;70.61;94789.45;1647263;83;21107;-67
2021/12/13 09:12:07;;;;;;;45.75;30.40;;;;;;;3.79;70.22;94790.32;1667695;83;21158;-60
2021/12/13 09:14:39;;;;;;;96.40;53.42;;;;;;;3.82;70.02;94781.35;1679258;83;21007;-62
2021/12/13 09:17:26;;;;;;;76.47;45.25;;;;;;;3.87;69.77;94782.27;1696103;82;21066;-70
2021/12/13 09:20:08;;;;;;;55.67;33.78;;;;;;;3.94;69.74;94778.13;1671805;82;21132;-63
2021/12/13 09:22:57;;;;;;;42.55;26.68;;;;;;;4.04;69.45;94782.68;1681786;82;21064;-65
2021/12/13 09:25:33;;;;;;;38.02;24.80;;;;;;;4.10;69.25;94778.36;1693294;82;21156;-59
2021/12/13 09:28:05;;;;;;;35.20;23.65;;;;;;;4.04;68.43;94775.88;1700587;81;21114;-63
2021/12/13 09:30:44;;;;;;;35.03;24.07;;;;;;;3.97;68.83;94769.16;1702292;81;20958;-65
2021/12/13 09:33:22;;;;;;;40.58;27.52;;;;;;;4.02;68.99;94770.67;1704887;82;21003;-65
2021/12/13 09:35:58;;;;;;;109.87;49.65;;;;;;;4.03;68.73;94767.53;1703083;82;21085;-65
2021/12/13 09:38:51;;;;;;;70.47;37.03;;;;;;;4.05;68.63;94772.58;1694580;81;21040;-61
2021/12/13 09:41:36;;;;;;;46.50;28.40;;;;;;;3.96;68.86;94773.06;1693812;82;21140;-62
2021/12/13 09:44:12;;;;;;;42.35;27.00;;;;;;;3.94;68.77;94776.77;1713276;82;21527;-59
2021/12/13 09:46:48;;;;;;;41.37;26.17;;;;;;;3.98;68.81;94772.63;1692013;82;21058;-61
2021/12/13 09:49:39;;;;;;;44.03;25.65;;;;;;;4.11;68.20;94767.66;1711351;82;21162;-63
2021/12/13 09:52:14;;;;;;;43.00;29.05;;;;;;;4.16;67.97;94771.29;1695626;81;21280;-61
2021/12/13 09:54:55;;;;;;;56.18;36.83;;;;;;;4.19;67.78;94776.49;1703470;82;21382;-59
2021/12/13 09:57:29;;;;;;;40.75;26.75;;;;;;;4.23;67.75;94773.16;1702712;81;21172;-60
2021/12/13 09:59:57;;;;;;;40.05;27.25;;;;;;;4.27;67.66;94770.56;1696371;82;21072;-64
2021/12/13 10:02:32;;;;;;;44.38;26.87;;;;;;;4.28;67.93;94769.38;1709749;81;21067;-57
2021/12/13 10:05:03;;;;;;;34.63;23.95;;;;;;;4.35;67.88;94777.49;1689154;82;21140;-59
2021/12/13 10:07:35;;;;;;;41.75;27.45;;;;;;;4.46;67.71;94767.23;1681877;83;21046;-61
2021/12/13 10:10:14;;;;;;;42.90;27.95;;;;;;;4.50;67.54;94763.90;1659198;83;22406;-59
2021/12/13 10:12:49;;;;;;;42.20;28.23;;;;;;;4.57;67.19;94761.08;1698456;82;21194;-64
2021/12/13 10:15:29;;;;;;;47.03;29.52;;;;;;;4.65;66.72;94767.99;1691616;82;21840;-68
2021/12/13 10:18:10;;;;;;;53.42;34.90;;;;;;;4.67;66.54;94768.36;1676468;83;21159;-70
2021/12/13 10:20:53;;;;;;;53.55;34.10;;;;;;;4.57;66.60;94766.52;1665361;81;21571;-66
2021/12/13 10:23:27;;;;;;;43.08;28.62;;;;;;;4.55;66.72;94769.46;1684573;81;21072;-69
2021/12/13 10:26:00;;;;;;;42.90;27.85;;;;;;;4.54;66.49;94775.52;1677798;82;21110;-65
2021/12/13 10:28:32;;;;;;;48.65;31.85;;;;;;;4.59;66.51;94770.97;1667615;83;21046;-71
2021/12/13 10:31:07;;;;;;;51.60;33.02;;;;;;;4.61;66.57;94761.80;1695309;83;21896;-68
2021/12/13 10:33:37;;;;;;;50.73;33.18;;;;;;;4.58;66.50;94762.61;1689330;82;21068;-67
2021/12/13 10:36:07;;;;;;;49.25;32.70;;;;;;;4.57;66.76;94763.80;1715939;81;21124;-67
2021/12/13 10:38:45;;;;;;;42.75;29.07;;;;;;;4.59;66.57;94768.25;1698993;83;21017;-61
2021/12/13 10:41:20;;;;;;;41.80;26.87;;;;;;;4.58;66.59;94759.14;1690178;83;20999;-63
2021/12/13 10:43:57;;;;;;;46.10;30.37;;;;;;;4.68;66.55;94760.36;1680711;83;21166;-66
2021/12/13 10:46:29;;;;;;;66.00;41.95;;;;;;;4.67;65.92;94754.73;1704091;83;21058;-62
2021/12/13 10:49:04;;;;;;;48.02;32.28;;;;;;;4.59;66.00;94758.71;1651218;83;21054;-62
2021/12/13 10:51:37;;;;;;;40.17;26.65;;;;;;;4.60;65.79;94762.98;1681726;83;21097;-63
2021/12/13 10:54:09;;;;;;;41.18;27.67;;;;;;;4.56;65.48;94755.45;1671623;83;21406;-73
2021/12/13 10:56:44;;;;;;;42.23;27.60;;;;;;;4.47;65.50;94751.09;1687302;83;26793;-67
2021/12/13 10:59:16;;;;;;;42.17;27.25;;;;;;;4.39;65.75;94748.87;1691807;82;20985;-68
2021/12/13 11:01:47;;;;;;;46.75;29.72;;;;;;;4.31;65.87;94743.30;1688278;83;21463;-63
2021/12/13 11:04:19;;;;;;;55.95;33.90;;;;;;;4.27;66.13;94740.61;1693936;83;21067;-67
2021/12/13 11:06:48;;;;;;;44.33;28.23;;;;;;;4.27;66.40;94740.61;1695930;83;26605;-67
2021/12/13 11:09:20;;;;;;;42.98;28.15;;;;;;;4.36;66.40;94738.77;1702898;83;21222;-66
2021/12/13 11:12:03;;;;;;;46.18;29.25;;;;;;;4.42;66.52;94740.63;1688224;82;21866;-65
2021/12/13 11:14:32;;;;;;;;;;;;;;;4.54;66.47;94737.38;1687058;82;21064;-62
2021/12/13 11:17:04;;;;;;;51.65;33.35;;;;;;;4.56;65.85;94743.19;1691163;83;20205;-70
2021/12/13 11:19:33;;;;;;;46.30;29.20;;;;;;;4.51;66.10;94742.29;1686543;83;21393;-65
2021/12/13 11:22:08;;;;;;;47.03;29.00;;;;;;;4.50;66.06;94739.95;1708327;83;21775;-62
2021/12/13 11:24:38;;;;;;;52.50;30.88;;;;;;;4.46;65.71;94734.55;1707578;83;21083;-67
2021/12/13 11:27:10;;;;;;;47.27;30.55;;;;;;;4.44;65.66;94741.60;1692130;83;21015;-65
2021/12/13 11:29:41;;;;;;;43.40;28.15;;;;;;;4.45;65.91;94737.09;1698976;83;21599;-65
2021/12/13 11:32:43;;;;;;;46.45;30.12;;;;;;;4.55;66.25;94743.58;1694789;83;21447;-65
2021/12/13 11:35:48;;;;;;;59.42;34.75;;;;;;;4.56;65.44;94740.47;1695586;83;21565;-62
2021/12/13 11:38:52;;;;;;;49.50;31.27;;;;;;;4.44;65.61;94746.44;1687320;83;22058;-63
2021/12/13 11:41:53;;;;;;;48.63;30.20;;;;;;;4.43;66.04;94742.17;1674264;83;21069;-66
2021/12/13 11:44:44;;;;;;;52.80;32.05;;;;;;;4.50;66.22;94743.47;1701968;83;21040;-64
2021/12/13 11:47:48;;;;;;;47.50;28.90;;;;;;;4.59;66.02;94736.92;1669025;82;21195;-61
2021/12/13 11:50:38;;;;;;;47.13;30.02;;;;;;;4.59;66.05;94739.64;1701921;83;21159;-63
2021/12/13 11:53:35;;;;;;;48.98;31.10;;;;;;;4.55;65.65;94738.14;1689893;83;21024;-62
2021/12/13 11:57:01;;;;;;;47.83;28.95;;;;;;;4.48;65.58;94735.52;1674865;84;22343;-69
2021/12/13 11:59:49;;;;;;;58.17;34.08;;;;;;;4.39;65.65;94741.45;1666881;83;21181;-57
2021/12/13 12:03:03;;;;;;;61.75;37.50;;;;;;;4.25;66.05;94740.25;1695759;83;21269;-64
2021/12/13 12:06:04;;;;;;;76.45;42.90;;;;;;;4.26;66.17;94737.71;1670433;83;21106;-62
2021/12/13 12:09:00;;;;;;;69.35;41.18;;;;;;;4.28;66.09;94743.52;1658039;83;21127;-64
2021/12/13 12:11:53;;;;;;;60.15;35.85;;;;;;;4.37;66.20;94743.81;1677492;83;21299;-64
2021/12/13 12:14:24;;;;;;;55.63;35.75;;;;;;;4.55;66.04;94743.58;1679023;83;21101;-63
2021/12/13 12:16:50;;;;;;;67.35;41.18;;;;;;;4.70;65.52;94740.86;1703220;82;21076;-68
2021/12/13 12:19:34;;;;;;;64.82;36.83;;;;;;;4.78;65.47;94747.17;1687365;83;21012;-71
2021/12/13 12:22:17;;;;;;;64.17;36.48;;;;;;;4.81;65.38;94742.87;1678383;83;21786;-66
2021/12/13 12:24:49;;;;;;;51.63;31.20;;;;;;;4.74;65.28;94749.75;1687814;82;21131;-65
2021/12/13 12:27:23;;;;;;;51.23;32.88;;;;;;;4.65;65.66;94753.02;1670601;84;21049;-66
2021/12/13 12:29:57;;;;;;;66.07;38.48;;;;;;;4.66;65.39;94752.41;1707575;82;21041;-60
2021/12/13 12:32:34;;;;;;;69.30;41.25;;;;;;;4.57;65.34;94756.98;1647675;83;21317;-64